sensor_id;sensor_type;location;lat;lon;timestamp;P1;durP1;ratioP1;P2;durP2;ratioP2
52031;SDS011;38044;45.148;39.604;2023-03-01T00:01:02;24.65;;;17.17;;
52031;SDS011;38044;45.148;39.604;2023-03-01T00:03:30;27.85;;;17.77;;
52031;SDS011;38044;45.148;39.604;2023-03-01T00:05:57;24.75;;;17.67;;
52031;SDS011;38044;45.148;39.604;2023-03-01T00:08:23;24.92;;;16.90;;
52031;SDS011;38044;45.148;39.604;2023-03-01T00:10:49;22.83;;;16.80;;
52031;SDS011;38044;45.148;39.604;2023-03-01T00:13:25;24.83;;;16.42;;
52031;SDS011;38044;45.148;39.604;2023-03-01T00:15:51;21.25;;;15.02;;
52031;SDS011;38044;45.148;39.604;2023-03-01T00:18:17;24.42;;;16.17;;
52031;SDS011;38044;45.148;39.604;2023-03-01T00:20:48;21.80;;;16.17;;
52031;SDS011;38044;45.148;39.604;2023-03-01T00:23:16;21.75;;;16.50;;
52031;SDS011;38044;45.148;39.604;2023-03-01T00:25:42;23.38;;;16.33;;
52031;SDS011;38044;45.148;39.604;2023-03-01T00:28:08;21.50;;;15.70;;
52031;SDS011;38044;45.148;39.604;2023-03-01T00:30:34;21.52;;;15.25;;
52031;SDS011;38044;45.148;39.604;2023-03-01T00:33:00;18.35;;;14.48;;
52031;SDS011;38044;45.148;39.604;2023-03-01T00:35:25;20.75;;;14.80;;
52031;SDS011;38044;45.148;39.604;2023-03-01T00:37:51;21.85;;;16.00;;
52031;SDS011;38044;45.148;39.604;2023-03-01T00:40:26;23.08;;;16.42;;
52031;SDS011;38044;45.148;39.604;2023-03-01T00:42:53;20.35;;;14.93;;
52031;SDS011;38044;45.148;39.604;2023-03-01T00:45:20;19.83;;;13.48;;
52031;SDS011;38044;45.148;39.604;2023-03-01T00:47:45;20.25;;;13.70;;
52031;SDS011;38044;45.148;39.604;2023-03-01T00:50:12;17.83;;;13.35;;
52031;SDS011;38044;45.148;39.604;2023-03-01T00:52:38;15.63;;;12.20;;
52031;SDS011;38044;45.148;39.604;2023-03-01T00:55:04;15.75;;;12.57;;
52031;SDS011;38044;45.148;39.604;2023-03-01T00:57:31;17.92;;;13.27;;
52031;SDS011;38044;45.148;39.604;2023-03-01T00:59:57;19.73;;;13.68;;
52031;SDS011;38044;45.148;39.604;2023-03-01T01:02:25;18.23;;;13.38;;
52031;SDS011;38044;45.148;39.604;2023-03-01T01:04:51;17.15;;;11.65;;
52031;SDS011;38044;45.148;39.604;2023-03-01T01:07:17;15.02;;;11.65;;
52031;SDS011;38044;45.148;39.604;2023-03-01T01:09:45;15.10;;;11.02;;
52031;SDS011;38044;45.148;39.604;2023-03-01T01:12:11;12.90;;;10.18;;
52031;SDS011;38044;45.148;39.604;2023-03-01T01:14:37;13.52;;;9.98;;
52031;SDS011;38044;45.148;39.604;2023-03-01T01:17:03;15.52;;;11.02;;
52031;SDS011;38044;45.148;39.604;2023-03-01T01:19:30;14.52;;;10.55;;
52031;SDS011;38044;45.148;39.604;2023-03-01T01:21:55;14.15;;;10.00;;
52031;SDS011;38044;45.148;39.604;2023-03-01T01:24:22;14.82;;;10.95;;
52031;SDS011;38044;45.148;39.604;2023-03-01T01:26:48;14.80;;;10.70;;
52031;SDS011;38044;45.148;39.604;2023-03-01T01:29:14;12.50;;;9.55;;
52031;SDS011;38044;45.148;39.604;2023-03-01T01:31:40;14.60;;;10.57;;
52031;SDS011;38044;45.148;39.604;2023-03-01T01:34:07;13.05;;;9.48;;
52031;SDS011;38044;45.148;39.604;2023-03-01T01:36:37;13.23;;;9.50;;
52031;SDS011;38044;45.148;39.604;2023-03-01T01:39:03;12.93;;;9.52;;
52031;SDS011;38044;45.148;39.604;2023-03-01T01:41:29;11.90;;;8.82;;
52031;SDS011;38044;45.148;39.604;2023-03-01T01:44:12;11.35;;;8.85;;
52031;SDS011;38044;45.148;39.604;2023-03-01T01:52:09;12.27;;;9.02;;
52031;SDS011;38044;45.148;39.604;2023-03-01T01:55:24;12.88;;;9.00;;
52031;SDS011;38044;45.148;39.604;2023-03-01T01:57:57;12.15;;;8.93;;
52031;SDS011;38044;45.148;39.604;2023-03-01T02:00:29;11.23;;;8.75;;
52031;SDS011;38044;45.148;39.604;2023-03-01T02:02:56;13.90;;;9.85;;
52031;SDS011;38044;45.148;39.604;2023-03-01T02:08:03;13.45;;;9.60;;
52031;SDS011;38044;45.148;39.604;2023-03-01T02:10:30;13.18;;;9.88;;
52031;SDS011;38044;45.148;39.604;2023-03-01T02:12:59;12.68;;;9.27;;
52031;SDS011;38044;45.148;39.604;2023-03-01T02:15:26;12.73;;;9.45;;
52031;SDS011;38044;45.148;39.604;2023-03-01T02:17:56;13.40;;;9.63;;
52031;SDS011;38044;45.148;39.604;2023-03-01T02:23:16;16.77;;;10.90;;
52031;SDS011;38044;45.148;39.604;2023-03-01T02:28:28;14.55;;;10.60;;
52031;SDS011;38044;45.148;39.604;2023-03-01T02:30:56;14.60;;;10.23;;
52031;SDS011;38044;45.148;39.604;2023-03-01T02:33:41;16.13;;;10.32;;
52031;SDS011;38044;45.148;39.604;2023-03-01T02:36:29;14.23;;;10.73;;
52031;SDS011;38044;45.148;39.604;2023-03-01T02:39:00;14.25;;;11.25;;
52031;SDS011;38044;45.148;39.604;2023-03-01T02:41:32;14.18;;;10.95;;
52031;SDS011;38044;45.148;39.604;2023-03-01T02:44:03;15.23;;;11.13;;
52031;SDS011;38044;45.148;39.604;2023-03-01T02:46:30;15.60;;;10.75;;
52031;SDS011;38044;45.148;39.604;2023-03-01T02:48:56;16.63;;;11.23;;
52031;SDS011;38044;45.148;39.604;2023-03-01T02:54:09;15.23;;;11.20;;
52031;SDS011;38044;45.148;39.604;2023-03-01T02:56:50;14.65;;;10.90;;
52031;SDS011;38044;45.148;39.604;2023-03-01T02:59:18;14.68;;;10.82;;
52031;SDS011;38044;45.148;39.604;2023-03-01T03:01:46;16.88;;;11.48;;
52031;SDS011;38044;45.148;39.604;2023-03-01T03:04:16;15.90;;;11.18;;
52031;SDS011;38044;45.148;39.604;2023-03-01T03:06:47;15.32;;;11.20;;
52031;SDS011;38044;45.148;39.604;2023-03-01T03:09:15;15.82;;;11.60;;
52031;SDS011;38044;45.148;39.604;2023-03-01T03:11:42;17.10;;;12.07;;
52031;SDS011;38044;45.148;39.604;2023-03-01T03:14:11;15.55;;;11.50;;
52031;SDS011;38044;45.148;39.604;2023-03-01T03:16:45;17.23;;;12.27;;
52031;SDS011;38044;45.148;39.604;2023-03-01T03:19:15;18.80;;;12.45;;
52031;SDS011;38044;45.148;39.604;2023-03-01T03:21:42;16.38;;;12.23;;
52031;SDS011;38044;45.148;39.604;2023-03-01T03:24:09;16.05;;;11.45;;
52031;SDS011;38044;45.148;39.604;2023-03-01T03:26:34;19.92;;;12.27;;
52031;SDS011;38044;45.148;39.604;2023-03-01T03:29:00;15.18;;;11.63;;
52031;SDS011;38044;45.148;39.604;2023-03-01T03:31:26;17.35;;;12.10;;
52031;SDS011;38044;45.148;39.604;2023-03-01T03:33:52;20.35;;;12.32;;
52031;SDS011;38044;45.148;39.604;2023-03-01T03:36:20;19.05;;;13.02;;
52031;SDS011;38044;45.148;39.604;2023-03-01T03:38:47;15.95;;;12.18;;
52031;SDS011;38044;45.148;39.604;2023-03-01T03:41:14;16.85;;;11.52;;
52031;SDS011;38044;45.148;39.604;2023-03-01T03:43:40;16.52;;;11.32;;
52031;SDS011;38044;45.148;39.604;2023-03-01T03:46:09;16.83;;;11.98;;
52031;SDS011;38044;45.148;39.604;2023-03-01T03:48:40;17.77;;;12.63;;
52031;SDS011;38044;45.148;39.604;2023-03-01T03:51:12;16.03;;;11.83;;
52031;SDS011;38044;45.148;39.604;2023-03-01T03:53:39;17.20;;;11.68;;
52031;SDS011;38044;45.148;39.604;2023-03-01T03:56:06;17.80;;;13.00;;
52031;SDS011;38044;45.148;39.604;2023-03-01T03:58:32;19.25;;;12.77;;
52031;SDS011;38044;45.148;39.604;2023-03-01T04:00:58;18.00;;;12.75;;
52031;SDS011;38044;45.148;39.604;2023-03-01T04:03:26;16.77;;;12.32;;
52031;SDS011;38044;45.148;39.604;2023-03-01T04:05:53;20.17;;;12.82;;
52031;SDS011;38044;45.148;39.604;2023-03-01T04:08:19;18.17;;;12.93;;
52031;SDS011;38044;45.148;39.604;2023-03-01T04:10:47;21.02;;;14.10;;
52031;SDS011;38044;45.148;39.604;2023-03-01T04:13:17;20.90;;;13.95;;
52031;SDS011;38044;45.148;39.604;2023-03-01T04:15:47;21.30;;;14.13;;
52031;SDS011;38044;45.148;39.604;2023-03-01T04:18:15;20.52;;;14.15;;
52031;SDS011;38044;45.148;39.604;2023-03-01T04:20:42;19.33;;;13.32;;
52031;SDS011;38044;45.148;39.604;2023-03-01T04:23:11;21.63;;;13.18;;
52031;SDS011;38044;45.148;39.604;2023-03-01T04:28:26;19.33;;;12.90;;
52031;SDS011;38044;45.148;39.604;2023-03-01T04:30:54;25.33;;;13.68;;
52031;SDS011;38044;45.148;39.604;2023-03-01T04:33:21;18.70;;;12.82;;
52031;SDS011;38044;45.148;39.604;2023-03-01T04:35:47;18.73;;;13.30;;
52031;SDS011;38044;45.148;39.604;2023-03-01T04:38:16;20.38;;;13.25;;
52031;SDS011;38044;45.148;39.604;2023-03-01T04:40:43;19.73;;;13.88;;
52031;SDS011;38044;45.148;39.604;2023-03-01T04:43:09;17.73;;;12.82;;
52031;SDS011;38044;45.148;39.604;2023-03-01T04:45:36;20.02;;;13.25;;
52031;SDS011;38044;45.148;39.604;2023-03-01T04:48:03;20.65;;;13.70;;
52031;SDS011;38044;45.148;39.604;2023-03-01T04:50:29;28.88;;;14.13;;
52031;SDS011;38044;45.148;39.604;2023-03-01T04:52:55;21.65;;;14.05;;
52031;SDS011;38044;45.148;39.604;2023-03-01T04:55:24;20.15;;;13.25;;
52031;SDS011;38044;45.148;39.604;2023-03-01T04:57:51;26.38;;;13.85;;
52031;SDS011;38044;45.148;39.604;2023-03-01T05:00:18;24.08;;;14.45;;
52031;SDS011;38044;45.148;39.604;2023-03-01T05:02:55;20.45;;;13.88;;
52031;SDS011;38044;45.148;39.604;2023-03-01T05:05:27;24.27;;;14.43;;
52031;SDS011;38044;45.148;39.604;2023-03-01T05:07:58;20.48;;;13.75;;
52031;SDS011;38044;45.148;39.604;2023-03-01T05:10:26;21.52;;;14.60;;
52031;SDS011;38044;45.148;39.604;2023-03-01T05:12:54;22.90;;;14.65;;
52031;SDS011;38044;45.148;39.604;2023-03-01T05:15:22;20.20;;;13.77;;
52031;SDS011;38044;45.148;39.604;2023-03-01T05:17:53;25.50;;;15.48;;
52031;SDS011;38044;45.148;39.604;2023-03-01T05:20:23;20.83;;;14.07;;
52031;SDS011;38044;45.148;39.604;2023-03-01T05:22:49;22.02;;;14.27;;
52031;SDS011;38044;45.148;39.604;2023-03-01T05:25:16;21.90;;;15.02;;
52031;SDS011;38044;45.148;39.604;2023-03-01T05:27:42;22.05;;;14.20;;
52031;SDS011;38044;45.148;39.604;2023-03-01T05:30:08;26.35;;;14.45;;
52031;SDS011;38044;45.148;39.604;2023-03-01T05:32:45;24.07;;;14.97;;
52031;SDS011;38044;45.148;39.604;2023-03-01T05:35:14;23.90;;;15.00;;
52031;SDS011;38044;45.148;39.604;2023-03-01T05:37:45;25.38;;;13.93;;
52031;SDS011;38044;45.148;39.604;2023-03-01T05:40:13;22.90;;;14.27;;
52031;SDS011;38044;45.148;39.604;2023-03-01T05:42:48;24.23;;;15.15;;
52031;SDS011;38044;45.148;39.604;2023-03-01T05:45:19;25.45;;;14.85;;
52031;SDS011;38044;45.148;39.604;2023-03-01T05:47:46;23.85;;;14.10;;
52031;SDS011;38044;45.148;39.604;2023-03-01T05:50:20;21.00;;;14.05;;
52031;SDS011;38044;45.148;39.604;2023-03-01T05:52:49;25.75;;;15.10;;
52031;SDS011;38044;45.148;39.604;2023-03-01T05:55:17;28.75;;;15.30;;
52031;SDS011;38044;45.148;39.604;2023-03-01T05:57:44;22.05;;;14.30;;
52031;SDS011;38044;45.148;39.604;2023-03-01T06:00:10;24.80;;;14.68;;
52031;SDS011;38044;45.148;39.604;2023-03-01T06:02:37;22.90;;;14.80;;
52031;SDS011;38044;45.148;39.604;2023-03-01T06:05:04;24.95;;;14.70;;
52031;SDS011;38044;45.148;39.604;2023-03-01T06:07:32;24.98;;;14.60;;
52031;SDS011;38044;45.148;39.604;2023-03-01T06:09:57;23.17;;;14.98;;
52031;SDS011;38044;45.148;39.604;2023-03-01T06:12:23;21.48;;;14.15;;
52031;SDS011;38044;45.148;39.604;2023-03-01T06:14:49;23.83;;;14.27;;
52031;SDS011;38044;45.148;39.604;2023-03-01T06:17:15;19.48;;;13.35;;
52031;SDS011;38044;45.148;39.604;2023-03-01T06:19:40;18.77;;;12.55;;
52031;SDS011;38044;45.148;39.604;2023-03-01T06:22:06;21.60;;;13.23;;
52031;SDS011;38044;45.148;39.604;2023-03-01T06:24:33;21.20;;;13.88;;
52031;SDS011;38044;45.148;39.604;2023-03-01T06:26:59;20.80;;;13.63;;
52031;SDS011;38044;45.148;39.604;2023-03-01T06:29:25;20.95;;;13.00;;
52031;SDS011;38044;45.148;39.604;2023-03-01T06:31:51;21.33;;;13.32;;
52031;SDS011;38044;45.148;39.604;2023-03-01T06:34:16;20.50;;;12.52;;
52031;SDS011;38044;45.148;39.604;2023-03-01T06:36:42;19.90;;;12.50;;
52031;SDS011;38044;45.148;39.604;2023-03-01T06:39:08;27.65;;;14.50;;
52031;SDS011;38044;45.148;39.604;2023-03-01T06:41:34;19.67;;;12.95;;
52031;SDS011;38044;45.148;39.604;2023-03-01T06:44:00;18.90;;;12.60;;
52031;SDS011;38044;45.148;39.604;2023-03-01T06:46:25;23.35;;;13.82;;
52031;SDS011;38044;45.148;39.604;2023-03-01T06:48:51;23.70;;;13.13;;
52031;SDS011;38044;45.148;39.604;2023-03-01T06:51:17;27.98;;;17.83;;
52031;SDS011;38044;45.148;39.604;2023-03-01T06:53:43;26.17;;;14.57;;
52031;SDS011;38044;45.148;39.604;2023-03-01T06:56:10;21.88;;;14.07;;
52031;SDS011;38044;45.148;39.604;2023-03-01T06:58:36;21.83;;;13.00;;
52031;SDS011;38044;45.148;39.604;2023-03-01T07:01:06;19.52;;;12.80;;
52031;SDS011;38044;45.148;39.604;2023-03-01T07:03:32;25.85;;;15.63;;
52031;SDS011;38044;45.148;39.604;2023-03-01T07:05:58;25.60;;;16.33;;
52031;SDS011;38044;45.148;39.604;2023-03-01T07:08:24;20.65;;;14.13;;
52031;SDS011;38044;45.148;39.604;2023-03-01T07:10:56;19.75;;;12.82;;
52031;SDS011;38044;45.148;39.604;2023-03-01T07:13:23;18.50;;;12.27;;
52031;SDS011;38044;45.148;39.604;2023-03-01T07:15:49;19.25;;;12.77;;
52031;SDS011;38044;45.148;39.604;2023-03-01T07:18:15;21.38;;;13.18;;
52031;SDS011;38044;45.148;39.604;2023-03-01T07:20:40;25.20;;;13.85;;
52031;SDS011;38044;45.148;39.604;2023-03-01T07:23:06;23.58;;;13.43;;
52031;SDS011;38044;45.148;39.604;2023-03-01T07:25:32;19.70;;;13.38;;
52031;SDS011;38044;45.148;39.604;2023-03-01T07:27:58;18.75;;;12.38;;
52031;SDS011;38044;45.148;39.604;2023-03-01T07:30:24;18.38;;;12.52;;
52031;SDS011;38044;45.148;39.604;2023-03-01T07:32:56;22.65;;;13.60;;
52031;SDS011;38044;45.148;39.604;2023-03-01T07:35:23;21.20;;;12.93;;
52031;SDS011;38044;45.148;39.604;2023-03-01T07:37:51;20.65;;;12.82;;
52031;SDS011;38044;45.148;39.604;2023-03-01T07:40:17;19.08;;;13.40;;
52031;SDS011;38044;45.148;39.604;2023-03-01T07:42:43;18.92;;;12.05;;
52031;SDS011;38044;45.148;39.604;2023-03-01T07:45:09;21.50;;;12.27;;
52031;SDS011;38044;45.148;39.604;2023-03-01T07:47:35;19.30;;;12.68;;
52031;SDS011;38044;45.148;39.604;2023-03-01T07:50:01;17.90;;;12.27;;
52031;SDS011;38044;45.148;39.604;2023-03-01T07:52:29;18.95;;;12.07;;
52031;SDS011;38044;45.148;39.604;2023-03-01T07:54:56;18.67;;;12.00;;
52031;SDS011;38044;45.148;39.604;2023-03-01T07:57:22;17.13;;;11.52;;
52031;SDS011;38044;45.148;39.604;2023-03-01T07:59:48;18.13;;;12.25;;
52031;SDS011;38044;45.148;39.604;2023-03-01T08:02:14;16.17;;;11.27;;
52031;SDS011;38044;45.148;39.604;2023-03-01T08:04:40;15.43;;;11.00;;
52031;SDS011;38044;45.148;39.604;2023-03-01T08:07:07;13.82;;;10.23;;
52031;SDS011;38044;45.148;39.604;2023-03-01T08:09:36;17.70;;;10.85;;
52031;SDS011;38044;45.148;39.604;2023-03-01T08:12:03;17.95;;;10.90;;
52031;SDS011;38044;45.148;39.604;2023-03-01T08:14:30;15.20;;;10.93;;
52031;SDS011;38044;45.148;39.604;2023-03-01T08:16:57;14.77;;;10.55;;
52031;SDS011;38044;45.148;39.604;2023-03-01T08:19:23;16.63;;;10.40;;
52031;SDS011;38044;45.148;39.604;2023-03-01T08:21:49;18.45;;;10.98;;
52031;SDS011;38044;45.148;39.604;2023-03-01T08:24:15;16.95;;;11.40;;
52031;SDS011;38044;45.148;39.604;2023-03-01T08:26:40;15.63;;;10.88;;
52031;SDS011;38044;45.148;39.604;2023-03-01T08:29:06;14.82;;;10.38;;
52031;SDS011;38044;45.148;39.604;2023-03-01T08:31:33;18.67;;;11.18;;
52031;SDS011;38044;45.148;39.604;2023-03-01T08:34:01;19.80;;;12.32;;
52031;SDS011;38044;45.148;39.604;2023-03-01T08:36:30;14.57;;;10.68;;
52031;SDS011;38044;45.148;39.604;2023-03-01T08:39:02;16.65;;;11.43;;
52031;SDS011;38044;45.148;39.604;2023-03-01T08:41:28;18.02;;;11.20;;
52031;SDS011;38044;45.148;39.604;2023-03-01T08:43:54;18.95;;;11.68;;
52031;SDS011;38044;45.148;39.604;2023-03-01T08:46:24;16.45;;;10.80;;
52031;SDS011;38044;45.148;39.604;2023-03-01T08:48:51;17.13;;;11.00;;
52031;SDS011;38044;45.148;39.604;2023-03-01T08:51:18;14.73;;;10.57;;
52031;SDS011;38044;45.148;39.604;2023-03-01T08:53:45;16.17;;;11.52;;
52031;SDS011;38044;45.148;39.604;2023-03-01T08:56:12;19.20;;;12.15;;
52031;SDS011;38044;45.148;39.604;2023-03-01T08:58:38;17.75;;;12.43;;
52031;SDS011;38044;45.148;39.604;2023-03-01T09:01:07;18.85;;;11.48;;
52031;SDS011;38044;45.148;39.604;2023-03-01T09:03:34;17.35;;;11.35;;
52031;SDS011;38044;45.148;39.604;2023-03-01T09:06:01;16.23;;;10.85;;
52031;SDS011;38044;45.148;39.604;2023-03-01T09:08:28;17.35;;;11.50;;
52031;SDS011;38044;45.148;39.604;2023-03-01T09:10:54;19.80;;;11.20;;
52031;SDS011;38044;45.148;39.604;2023-03-01T09:13:20;18.60;;;12.73;;
52031;SDS011;38044;45.148;39.604;2023-03-01T09:15:50;17.08;;;11.80;;
52031;SDS011;38044;45.148;39.604;2023-03-01T09:18:16;16.20;;;12.20;;
52031;SDS011;38044;45.148;39.604;2023-03-01T09:20:42;21.30;;;15.20;;
52031;SDS011;38044;45.148;39.604;2023-03-01T09:23:07;21.10;;;14.93;;
52031;SDS011;38044;45.148;39.604;2023-03-01T09:25:34;22.52;;;16.20;;
52031;SDS011;38044;45.148;39.604;2023-03-01T09:28:00;21.05;;;15.00;;
52031;SDS011;38044;45.148;39.604;2023-03-01T09:30:26;22.25;;;14.00;;
52031;SDS011;38044;45.148;39.604;2023-03-01T09:32:52;20.00;;;13.00;;
52031;SDS011;38044;45.148;39.604;2023-03-01T09:35:18;26.58;;;14.23;;
52031;SDS011;38044;45.148;39.604;2023-03-01T09:37:45;50.70;;;26.95;;
52031;SDS011;38044;45.148;39.604;2023-03-01T09:40:12;75.78;;;36.78;;
52031;SDS011;38044;45.148;39.604;2023-03-01T09:42:50;39.70;;;22.45;;
52031;SDS011;38044;45.148;39.604;2023-03-01T09:45:28;31.02;;;18.63;;
52031;SDS011;38044;45.148;39.604;2023-03-01T09:47:59;40.65;;;22.60;;
52031;SDS011;38044;45.148;39.604;2023-03-01T09:50:28;42.05;;;24.85;;
52031;SDS011;38044;45.148;39.604;2023-03-01T09:53:05;27.77;;;16.98;;
52031;SDS011;38044;45.148;39.604;2023-03-01T09:58:48;18.80;;;12.70;;
52031;SDS011;38044;45.148;39.604;2023-03-01T10:01:34;18.77;;;13.18;;
52031;SDS011;38044;45.148;39.604;2023-03-01T10:09:43;20.23;;;13.02;;
52031;SDS011;38044;45.148;39.604;2023-03-01T10:12:13;17.83;;;12.75;;
52031;SDS011;38044;45.148;39.604;2023-03-01T10:20:52;19.48;;;12.55;;
52031;SDS011;38044;45.148;39.604;2023-03-01T10:26:19;13.90;;;11.25;;
52031;SDS011;38044;45.148;39.604;2023-03-01T10:28:58;18.67;;;12.10;;
52031;SDS011;38044;45.148;39.604;2023-03-01T10:31:36;21.05;;;12.65;;
52031;SDS011;38044;45.148;39.604;2023-03-01T10:34:13;17.35;;;11.20;;
52031;SDS011;38044;45.148;39.604;2023-03-01T10:36:41;17.90;;;13.90;;
52031;SDS011;38044;45.148;39.604;2023-03-01T10:39:20;15.73;;;10.55;;
52031;SDS011;38044;45.148;39.604;2023-03-01T10:44:38;16.13;;;10.35;;
52031;SDS011;38044;45.148;39.604;2023-03-01T10:47:25;20.17;;;13.20;;
52031;SDS011;38044;45.148;39.604;2023-03-01T10:52:25;12.95;;;9.18;;
52031;SDS011;38044;45.148;39.604;2023-03-01T10:54:58;19.27;;;9.40;;
52031;SDS011;38044;45.148;39.604;2023-03-01T11:00:22;20.52;;;9.80;;
52031;SDS011;38044;45.148;39.604;2023-03-01T11:02:51;16.05;;;9.45;;
52031;SDS011;38044;45.148;39.604;2023-03-01T11:05:28;11.95;;;8.35;;
52031;SDS011;38044;45.148;39.604;2023-03-01T11:07:56;12.73;;;8.32;;
52031;SDS011;38044;45.148;39.604;2023-03-01T11:10:24;12.88;;;7.40;;
52031;SDS011;38044;45.148;39.604;2023-03-01T11:12:52;11.88;;;7.80;;
52031;SDS011;38044;45.148;39.604;2023-03-01T11:15:20;13.45;;;8.15;;
52031;SDS011;38044;45.148;39.604;2023-03-01T11:17:49;12.10;;;7.32;;
52031;SDS011;38044;45.148;39.604;2023-03-01T11:20:26;14.35;;;8.35;;
52031;SDS011;38044;45.148;39.604;2023-03-01T11:23:14;28.67;;;16.25;;
52031;SDS011;38044;45.148;39.604;2023-03-01T11:25:42;29.33;;;15.20;;
52031;SDS011;38044;45.148;39.604;2023-03-01T11:28:13;20.05;;;10.82;;
52031;SDS011;38044;45.148;39.604;2023-03-01T11:35:34;13.35;;;8.45;;
52031;SDS011;38044;45.148;39.604;2023-03-01T11:40:55;12.35;;;7.05;;
52031;SDS011;38044;45.148;39.604;2023-03-01T11:43:58;17.85;;;8.38;;
52031;SDS011;38044;45.148;39.604;2023-03-01T12:17:57;14.40;;;8.23;;
52031;SDS011;38044;45.148;39.604;2023-03-01T12:26:10;9.85;;;5.72;;
52031;SDS011;38044;45.148;39.604;2023-03-01T12:28:48;8.50;;;5.30;;
52031;SDS011;38044;45.148;39.604;2023-03-01T12:31:49;9.82;;;5.28;;
52031;SDS011;38044;45.148;39.604;2023-03-01T12:49:24;12.25;;;7.15;;
52031;SDS011;38044;45.148;39.604;2023-03-01T12:52:03;9.50;;;5.55;;
52031;SDS011;38044;45.148;39.604;2023-03-01T12:54:39;10.02;;;5.32;;
52031;SDS011;38044;45.148;39.604;2023-03-01T12:57:21;8.25;;;5.35;;
52031;SDS011;38044;45.148;39.604;2023-03-01T13:02:54;11.32;;;6.50;;
52031;SDS011;38044;45.148;39.604;2023-03-01T13:08:47;11.23;;;6.95;;
52031;SDS011;38044;45.148;39.604;2023-03-01T13:11:18;10.25;;;6.20;;
52031;SDS011;38044;45.148;39.604;2023-03-01T13:13:47;13.57;;;6.82;;
52031;SDS011;38044;45.148;39.604;2023-03-01T13:16:21;11.52;;;6.07;;
52031;SDS011;38044;45.148;39.604;2023-03-01T13:21:51;13.27;;;7.28;;
52031;SDS011;38044;45.148;39.604;2023-03-01T13:24:40;11.15;;;6.78;;
52031;SDS011;38044;45.148;39.604;2023-03-01T13:32:21;14.25;;;8.15;;
52031;SDS011;38044;45.148;39.604;2023-03-01T13:34:52;17.13;;;10.10;;
52031;SDS011;38044;45.148;39.604;2023-03-01T13:37:26;12.77;;;8.80;;
52031;SDS011;38044;45.148;39.604;2023-03-01T13:39:58;13.85;;;9.13;;
52031;SDS011;38044;45.148;39.604;2023-03-01T13:45:00;20.38;;;9.55;;
52031;SDS011;38044;45.148;39.604;2023-03-01T13:47:26;17.48;;;10.07;;
52031;SDS011;38044;45.148;39.604;2023-03-01T13:49:57;18.50;;;11.30;;
52031;SDS011;38044;45.148;39.604;2023-03-01T13:57:48;19.00;;;9.50;;
52031;SDS011;38044;45.148;39.604;2023-03-01T14:00:26;21.02;;;11.30;;
52031;SDS011;38044;45.148;39.604;2023-03-01T14:03:02;29.02;;;12.25;;
52031;SDS011;38044;45.148;39.604;2023-03-01T14:05:30;20.85;;;12.68;;
52031;SDS011;38044;45.148;39.604;2023-03-01T14:07:56;21.63;;;12.25;;
52031;SDS011;38044;45.148;39.604;2023-03-01T14:10:22;19.13;;;11.45;;
52031;SDS011;38044;45.148;39.604;2023-03-01T14:13:00;21.42;;;11.95;;
52031;SDS011;38044;45.148;39.604;2023-03-01T14:18:46;22.83;;;11.90;;
52031;SDS011;38044;45.148;39.604;2023-03-01T14:21:21;22.25;;;12.02;;
52031;SDS011;38044;45.148;39.604;2023-03-01T14:23:47;31.15;;;14.52;;
52031;SDS011;38044;45.148;39.604;2023-03-01T14:26:14;25.20;;;13.43;;
52031;SDS011;38044;45.148;39.604;2023-03-01T14:28:47;23.38;;;12.73;;
52031;SDS011;38044;45.148;39.604;2023-03-01T14:34:01;20.95;;;11.38;;
52031;SDS011;38044;45.148;39.604;2023-03-01T14:36:28;24.00;;;12.95;;
52031;SDS011;38044;45.148;39.604;2023-03-01T14:38:56;22.50;;;11.85;;
52031;SDS011;38044;45.148;39.604;2023-03-01T14:41:33;20.00;;;11.27;;
52031;SDS011;38044;45.148;39.604;2023-03-01T14:44:02;21.13;;;12.20;;
52031;SDS011;38044;45.148;39.604;2023-03-01T14:49:19;22.83;;;13.23;;
52031;SDS011;38044;45.148;39.604;2023-03-01T14:51:57;24.48;;;12.60;;
52031;SDS011;38044;45.148;39.604;2023-03-01T14:54:43;21.63;;;11.35;;
52031;SDS011;38044;45.148;39.604;2023-03-01T14:57:16;25.65;;;13.30;;
52031;SDS011;38044;45.148;39.604;2023-03-01T14:59:46;20.35;;;12.05;;
52031;SDS011;38044;45.148;39.604;2023-03-01T15:02:15;22.88;;;12.50;;
52031;SDS011;38044;45.148;39.604;2023-03-01T15:04:49;27.00;;;12.48;;
52031;SDS011;38044;45.148;39.604;2023-03-01T15:07:21;26.30;;;12.35;;
52031;SDS011;38044;45.148;39.604;2023-03-01T15:09:53;61.90;;;27.52;;
52031;SDS011;38044;45.148;39.604;2023-03-01T15:14:54;44.97;;;19.55;;
52031;SDS011;38044;45.148;39.604;2023-03-01T15:17:36;23.95;;;12.77;;
52031;SDS011;38044;45.148;39.604;2023-03-01T15:20:04;20.50;;;12.13;;
52031;SDS011;38044;45.148;39.604;2023-03-01T15:22:43;26.45;;;13.43;;
52031;SDS011;38044;45.148;39.604;2023-03-01T15:25:19;21.58;;;12.18;;
52031;SDS011;38044;45.148;39.604;2023-03-01T15:27:48;24.83;;;12.55;;
52031;SDS011;38044;45.148;39.604;2023-03-01T15:30:23;24.08;;;13.10;;
52031;SDS011;38044;45.148;39.604;2023-03-01T15:35:46;21.92;;;12.98;;
52031;SDS011;38044;45.148;39.604;2023-03-01T15:40:58;21.15;;;12.60;;
52031;SDS011;38044;45.148;39.604;2023-03-01T15:43:38;20.83;;;12.63;;
52031;SDS011;38044;45.148;39.604;2023-03-01T15:46:25;24.73;;;12.88;;
52031;SDS011;38044;45.148;39.604;2023-03-01T15:48:58;22.35;;;12.38;;
52031;SDS011;38044;45.148;39.604;2023-03-01T15:51:30;22.40;;;13.20;;
52031;SDS011;38044;45.148;39.604;2023-03-01T15:53:57;23.13;;;13.63;;
52031;SDS011;38044;45.148;39.604;2023-03-01T15:56:24;22.52;;;13.43;;
52031;SDS011;38044;45.148;39.604;2023-03-01T15:58:50;20.85;;;13.38;;
52031;SDS011;38044;45.148;39.604;2023-03-01T16:01:16;24.65;;;14.45;;
52031;SDS011;38044;45.148;39.604;2023-03-01T16:03:43;22.73;;;14.35;;
52031;SDS011;38044;45.148;39.604;2023-03-01T16:06:09;24.13;;;14.88;;
52031;SDS011;38044;45.148;39.604;2023-03-01T16:08:36;35.13;;;15.43;;
52031;SDS011;38044;45.148;39.604;2023-03-01T16:11:04;24.30;;;15.23;;
52031;SDS011;38044;45.148;39.604;2023-03-01T16:13:34;27.02;;;15.82;;
52031;SDS011;38044;45.148;39.604;2023-03-01T16:15:59;29.23;;;15.63;;
52031;SDS011;38044;45.148;39.604;2023-03-01T16:18:25;25.33;;;15.95;;
52031;SDS011;38044;45.148;39.604;2023-03-01T16:20:51;25.25;;;15.75;;
52031;SDS011;38044;45.148;39.604;2023-03-01T16:23:19;24.15;;;15.80;;
52031;SDS011;38044;45.148;39.604;2023-03-01T16:25:44;26.92;;;15.85;;
52031;SDS011;38044;45.148;39.604;2023-03-01T16:28:10;26.58;;;17.20;;
52031;SDS011;38044;45.148;39.604;2023-03-01T16:30:39;27.02;;;16.45;;
52031;SDS011;38044;45.148;39.604;2023-03-01T16:33:05;27.00;;;17.27;;
52031;SDS011;38044;45.148;39.604;2023-03-01T16:35:33;26.17;;;17.38;;
52031;SDS011;38044;45.148;39.604;2023-03-01T16:37:59;27.95;;;17.05;;
52031;SDS011;38044;45.148;39.604;2023-03-01T16:40:26;27.15;;;16.77;;
52031;SDS011;38044;45.148;39.604;2023-03-01T16:42:54;30.38;;;17.38;;
52031;SDS011;38044;45.148;39.604;2023-03-01T16:45:24;27.45;;;17.30;;
52031;SDS011;38044;45.148;39.604;2023-03-01T16:47:52;30.55;;;17.52;;